PWSweather.com
Personal Weather Stations
Station Observations
KMIEASTT1
Tawas Bay, East Tawas, MI 48730

Tawas BayEast Tawas, MI 48730

Lat: 44.28, Lon: -83.48

Elevation: 600

Station Type: Davis VantagePro

http://www.tawasbayweather.com

High Low Average
Temperature 75.0°F23.9°F 63.7°F17.6°F 68.5°F20.3°F
Dew Point 59.0°F15.0°F 54.6°F12.6°F 57.7°F14.3°F
Winds 5.0 mph W8.0 mph W Calm Calm 1.7 mph 2.7 mph
Wind Gusts 12.0 mph19.3 mph 1.0 mph1.6 mph 4.2 mph6.8 mph
Humidity 80% 49% 69%
Pressure 29.83 in1010.20 in 29.78 in1008.50 in -
Precipitation 0.06 in1.50 in - -
Hour Temp Dew Point Humidity Winds Wind Gusts Pressure Precip Precip Rate Daily Precip Total
12:00 AM 70.4°F21.3°C 67.0°F19.4°C 89% 5.0 mph SE8.0 kmh SE 8.0 mph12.9 kmh 29.86 in1011.2 mb 0.00 in0.0 mm 0.00 in0.0 mm 0.00 in0.0 mm
12:15 AM 70.5°F21.4°C 66.8°F19.3°C 88% 4.0 mph SE6.4 kmh SE 8.0 mph12.9 kmh 29.86 in1011.2 mb 0.00 in0.0 mm 0.00 in0.0 mm 0.00 in0.0 mm
12:30 AM 70.7°F21.5°C 67.3°F19.6°C 89% 5.0 mph SE8.0 kmh SE 8.0 mph12.9 kmh 29.86 in1011.2 mb 0.00 in0.0 mm 0.00 in0.0 mm 0.00 in0.0 mm
12:45 AM 70.7°F21.5°C 67.3°F19.6°C 89% 8.0 mph E12.9 kmh E 9.0 mph14.5 kmh 29.86 in1011.2 mb 0.00 in0.0 mm 0.00 in0.0 mm 0.00 in0.0 mm
01:00 AM 70.6°F21.4°C 67.5°F19.7°C 90% 7.0 mph ESE11.3 kmh ESE 7.0 mph11.3 kmh 29.86 in1011.2 mb 0.00 in0.0 mm 0.00 in0.0 mm 0.00 in0.0 mm
01:15 AM 69.7°F20.9°C 65.3°F18.5°C 86% Calm Calm 1.0 mph1.6 kmh 29.87 in1011.5 mb 0.00 in0.0 mm 0.00 in0.0 mm 0.00 in0.0 mm
01:30 AM 70.1°F21.2°C 67.4°F19.7°C 91% 7.0 mph SE11.3 kmh SE 9.0 mph14.5 kmh 29.86 in1011.2 mb 0.00 in0.0 mm 0.00 in0.0 mm 0.00 in0.0 mm
01:45 AM 69.6°F20.9°C 65.2°F18.4°C 86% Calm Calm 2.0 mph3.2 kmh 29.86 in1011.2 mb 0.00 in0.0 mm 0.00 in0.0 mm 0.00 in0.0 mm
02:00 AM 70.2°F21.2°C 67.5°F19.7°C 91% 7.0 mph ESE11.3 kmh ESE 9.0 mph14.5 kmh 29.86 in1011.2 mb 0.00 in0.0 mm 0.00 in0.0 mm 0.00 in0.0 mm
02:15 AM 70.4°F21.3°C 67.3°F19.6°C 90% 9.0 mph ESE14.5 kmh ESE 10.0 mph16.1 kmh 29.85 in1010.8 mb 0.00 in0.0 mm 0.00 in0.0 mm 0.00 in0.0 mm
02:30 AM 70.6°F21.4°C 67.5°F19.7°C 90% 5.0 mph ESE8.0 kmh ESE 8.0 mph12.9 kmh 29.85 in1010.8 mb 0.00 in0.0 mm 0.00 in0.0 mm 0.00 in0.0 mm
02:45 AM 70.5°F21.4°C 67.1°F19.5°C 89% 2.0 mph S3.2 kmh S 7.0 mph11.3 kmh 29.85 in1010.8 mb 0.00 in0.0 mm 0.00 in0.0 mm 0.00 in0.0 mm
03:00 AM 68.4°F20.2°C 64.1°F17.8°C 86% 2.0 mph NW3.2 kmh NW 3.0 mph4.8 kmh 29.85 in1010.8 mb 0.00 in0.0 mm 0.00 in0.0 mm 0.00 in0.0 mm
03:15 AM 65.6°F18.7°C 62.6°F17.0°C 90% Calm Calm 2.0 mph3.2 kmh 29.85 in1010.8 mb 0.00 in0.0 mm 0.00 in0.0 mm 0.00 in0.0 mm
03:30 AM 64.6°F18.1°C 61.9°F16.6°C 91% 1.0 mph W1.6 kmh W 3.0 mph4.8 kmh 29.85 in1010.8 mb 0.00 in0.0 mm 0.00 in0.0 mm 0.00 in0.0 mm
03:45 AM 63.9°F17.7°C 60.9°F16.1°C 90% Calm Calm 1.0 mph1.6 kmh 29.85 in1010.8 mb 0.00 in0.0 mm 0.00 in0.0 mm 0.00 in0.0 mm
04:00 AM 63.6°F17.6°C 60.3°F15.7°C 89% Calm Calm 1.0 mph1.6 kmh 29.85 in1010.8 mb 0.00 in0.0 mm 0.00 in0.0 mm 0.00 in0.0 mm
04:15 AM 63.6°F17.6°C 59.7°F15.4°C 87% Calm Calm 2.0 mph3.2 kmh 29.85 in1010.8 mb 0.00 in0.0 mm 0.00 in0.0 mm 0.00 in0.0 mm
04:30 AM 63.2°F17.3°C 59.0°F15.0°C 86% 1.0 mph WNW1.6 kmh WNW 2.0 mph3.2 kmh 29.84 in1010.5 mb 0.00 in0.0 mm 0.00 in0.0 mm 0.00 in0.0 mm
04:45 AM 63.4°F17.4°C 58.5°F14.7°C 84% 1.0 mph W1.6 kmh W 4.0 mph6.4 kmh 29.84 in1010.5 mb 0.00 in0.0 mm 0.00 in0.0 mm 0.00 in0.0 mm
05:00 AM 63.0°F17.2°C 58.1°F14.5°C 84% 3.0 mph W4.8 kmh W 5.0 mph8.0 kmh 29.84 in1010.5 mb 0.00 in0.0 mm 0.00 in0.0 mm 0.00 in0.0 mm
05:15 AM 62.7°F17.1°C 57.8°F14.3°C 84% 2.0 mph WNW3.2 kmh WNW 7.0 mph11.3 kmh 29.84 in1010.5 mb 0.00 in0.0 mm 0.00 in0.0 mm 0.00 in0.0 mm
05:30 AM 62.5°F16.9°C 57.6°F14.2°C 84% 3.0 mph NW4.8 kmh NW 8.0 mph12.9 kmh 29.84 in1010.5 mb 0.00 in0.0 mm 0.00 in0.0 mm 0.00 in0.0 mm
05:45 AM 62.4°F16.9°C 57.8°F14.3°C 85% 5.0 mph WNW8.0 kmh WNW 8.0 mph12.9 kmh 29.84 in1010.5 mb 0.00 in0.0 mm 0.00 in0.0 mm 0.00 in0.0 mm
06:00 AM 62.0°F16.7°C 57.5°F14.2°C 85% 3.0 mph NW4.8 kmh NW 7.0 mph11.3 kmh 29.84 in1010.5 mb 0.00 in0.0 mm 0.00 in0.0 mm 0.00 in0.0 mm
06:15 AM 61.8°F16.6°C 57.6°F14.2°C 86% 1.0 mph NW1.6 kmh NW 7.0 mph11.3 kmh 29.84 in1010.5 mb 0.00 in0.0 mm 0.00 in0.0 mm 0.00 in0.0 mm
06:30 AM 61.6°F16.4°C 57.4°F14.1°C 86% 2.0 mph NW3.2 kmh NW 7.0 mph11.3 kmh 29.84 in1010.5 mb 0.00 in0.0 mm 0.00 in0.0 mm 0.00 in0.0 mm
06:45 AM 61.7°F16.5°C 57.5°F14.2°C 86% 4.0 mph W6.4 kmh W 7.0 mph11.3 kmh 29.84 in1010.5 mb 0.00 in0.0 mm 0.00 in0.0 mm 0.00 in0.0 mm
07:00 AM 62.0°F16.7°C 57.8°F14.3°C 86% 3.0 mph WNW4.8 kmh WNW 6.0 mph9.7 kmh 29.84 in1010.5 mb 0.00 in0.0 mm 0.00 in0.0 mm 0.00 in0.0 mm
07:15 AM 62.7°F17.1°C 58.1°F14.5°C 85% 4.0 mph WNW6.4 kmh WNW 7.0 mph11.3 kmh 29.84 in1010.5 mb 0.00 in0.0 mm 0.00 in0.0 mm 0.00 in0.0 mm
07:30 AM 63.1°F17.3°C 58.2°F14.6°C 84% 3.0 mph W4.8 kmh W 9.0 mph14.5 kmh 29.85 in1010.8 mb 0.00 in0.0 mm 0.00 in0.0 mm 0.00 in0.0 mm
07:45 AM 63.8°F17.7°C 58.5°F14.7°C 83% 7.0 mph NW11.3 kmh NW 9.0 mph14.5 kmh 29.85 in1010.8 mb 0.00 in0.0 mm 0.00 in0.0 mm 0.00 in0.0 mm
08:00 AM 65.0°F18.3°C 59.0°F15.0°C 81% 4.0 mph W6.4 kmh W 7.0 mph11.3 kmh 29.84 in1010.5 mb 0.00 in0.0 mm 0.00 in0.0 mm 0.00 in0.0 mm
08:15 AM 66.1°F18.9°C 59.8°F15.4°C 80% 7.0 mph WSW11.3 kmh WSW 9.0 mph14.5 kmh 29.85 in1010.8 mb 0.00 in0.0 mm 0.00 in0.0 mm 0.00 in0.0 mm
08:30 AM 67.2°F19.6°C 60.1°F15.6°C 78% 6.0 mph NW9.7 kmh NW 11.0 mph17.7 kmh 29.84 in1010.5 mb 0.00 in0.0 mm 0.00 in0.0 mm 0.00 in0.0 mm
08:45 AM 68.1°F20.1°C 61.0°F16.1°C 78% 6.0 mph WNW9.7 kmh WNW 14.0 mph22.5 kmh 29.83 in1010.2 mb 0.00 in0.0 mm 0.00 in0.0 mm 0.00 in0.0 mm
09:00 AM 69.1°F20.6°C 60.9°F16.1°C 75% 7.0 mph WSW11.3 kmh WSW 10.0 mph16.1 kmh 29.83 in1010.2 mb 0.00 in0.0 mm 0.00 in0.0 mm 0.00 in0.0 mm
09:15 AM 70.4°F21.3°C 62.1°F16.7°C 75% 6.0 mph WSW9.7 kmh WSW 10.0 mph16.1 kmh 29.83 in1010.2 mb 0.00 in0.0 mm 0.00 in0.0 mm 0.00 in0.0 mm
09:30 AM 71.4°F21.9°C 62.3°F16.8°C 73% 9.0 mph WSW14.5 kmh WSW 9.0 mph14.5 kmh 29.82 in1009.8 mb 0.00 in0.0 mm 0.00 in0.0 mm 0.00 in0.0 mm
09:45 AM 72.6°F22.6°C 62.3°F16.8°C 70% 5.0 mph W8.0 kmh W 11.0 mph17.7 kmh 29.82 in1009.8 mb 0.00 in0.0 mm 0.00 in0.0 mm 0.00 in0.0 mm
10:00 AM 72.9°F22.7°C 62.6°F17.0°C 70% 7.0 mph WSW11.3 kmh WSW 12.0 mph19.3 kmh 29.82 in1009.8 mb 0.00 in0.0 mm 0.00 in0.0 mm 0.00 in0.0 mm
10:15 AM 72.3°F22.4°C 63.2°F17.3°C 73% 7.0 mph WSW11.3 kmh WSW 10.0 mph16.1 kmh 29.82 in1009.8 mb 0.00 in0.0 mm 0.00 in0.0 mm 0.00 in0.0 mm
10:30 AM 72.6°F22.6°C 63.5°F17.5°C 73% 6.0 mph WSW9.7 kmh WSW 10.0 mph16.1 kmh 29.82 in1009.8 mb 0.00 in0.0 mm 0.00 in0.0 mm 0.00 in0.0 mm
10:45 AM 73.1°F22.8°C 63.6°F17.6°C 72% 7.0 mph WSW11.3 kmh WSW 11.0 mph17.7 kmh 29.81 in1009.5 mb 0.00 in0.0 mm 0.00 in0.0 mm 0.00 in0.0 mm
11:00 AM 73.3°F22.9°C 63.7°F17.6°C 72% 7.0 mph WSW11.3 kmh WSW 9.0 mph14.5 kmh 29.81 in1009.5 mb 0.00 in0.0 mm 0.00 in0.0 mm 0.00 in0.0 mm
11:15 AM 74.2°F23.4°C 63.4°F17.4°C 69% 6.0 mph SW9.7 kmh SW 10.0 mph16.1 kmh 29.81 in1009.5 mb 0.00 in0.0 mm 0.00 in0.0 mm 0.00 in0.0 mm
11:30 AM 74.8°F23.8°C 64.0°F17.8°C 69% 7.0 mph SW11.3 kmh SW 12.0 mph19.3 kmh 29.81 in1009.5 mb 0.00 in0.0 mm 0.00 in0.0 mm 0.00 in0.0 mm
11:45 AM 75.4°F24.1°C 63.7°F17.6°C 67% 7.0 mph SW11.3 kmh SW 14.0 mph22.5 kmh 29.81 in1009.5 mb 0.00 in0.0 mm 0.00 in0.0 mm 0.00 in0.0 mm
12:00 PM 76.8°F24.9°C 62.4°F16.9°C 61% 14.0 mph WSW22.5 kmh WSW 16.0 mph25.7 kmh 29.80 in1009.1 mb 0.00 in0.0 mm 0.00 in0.0 mm 0.00 in0.0 mm
12:15 PM 76.2°F24.6°C 63.6°F17.6°C 65% 9.0 mph WSW14.5 kmh WSW 15.0 mph24.1 kmh 29.79 in1008.8 mb 0.00 in0.0 mm 0.00 in0.0 mm 0.00 in0.0 mm
12:30 PM 78.6°F25.9°C 61.1°F16.2°C 55% 12.0 mph WSW19.3 kmh WSW 18.0 mph29.0 kmh 29.78 in1008.5 mb 0.00 in0.0 mm 0.00 in0.0 mm 0.00 in0.0 mm
12:45 PM 77.8°F25.4°C 61.4°F16.3°C 57% 15.0 mph WSW24.1 kmh WSW 21.0 mph33.8 kmh 29.78 in1008.5 mb 0.00 in0.0 mm 0.00 in0.0 mm 0.00 in0.0 mm
01:00 PM 78.1°F25.6°C 62.6°F17.0°C 59% 12.0 mph WSW19.3 kmh WSW 12.0 mph19.3 kmh 29.77 in1008.1 mb 0.00 in0.0 mm 0.00 in0.0 mm 0.00 in0.0 mm
01:15 PM 81.3°F27.4°C 58.0°F14.4°C 45% 13.0 mph WNW20.9 kmh WNW 17.0 mph27.4 kmh 29.77 in1008.1 mb 0.00 in0.0 mm 0.00 in0.0 mm 0.00 in0.0 mm
01:30 PM 78.5°F25.8°C 61.0°F16.1°C 55% 10.0 mph WSW16.1 kmh WSW 18.0 mph29.0 kmh 29.77 in1008.1 mb 0.00 in0.0 mm 0.00 in0.0 mm 0.00 in0.0 mm
01:45 PM 79.8°F26.6°C 58.4°F14.7°C 48% 2.0 mph NW3.2 kmh NW 11.0 mph17.7 kmh 29.77 in1008.1 mb 0.00 in0.0 mm 0.00 in0.0 mm 0.00 in0.0 mm
02:00 PM 78.1°F25.6°C 60.6°F15.9°C 55% Calm Calm 3.0 mph4.8 kmh 29.77 in1008.1 mb 0.00 in0.0 mm 0.00 in0.0 mm 0.00 in0.0 mm
02:15 PM 79.5°F26.4°C 60.9°F16.1°C 53% 4.0 mph W6.4 kmh W 7.0 mph11.3 kmh 29.76 in1007.8 mb 0.00 in0.0 mm 0.00 in0.0 mm 0.00 in0.0 mm
02:30 PM 80.4°F26.9°C 61.7°F16.5°C 53% 3.0 mph W4.8 kmh W 7.0 mph11.3 kmh 29.76 in1007.8 mb 0.00 in0.0 mm 0.00 in0.0 mm 0.00 in0.0 mm
02:45 PM 76.8°F24.9°C 62.8°F17.1°C 62% 8.0 mph NW12.9 kmh NW 17.0 mph27.4 kmh 29.78 in1008.5 mb 0.01 in0.3 mm 0.04 in1.0 mm 0.01 in0.3 mm
03:00 PM 69.7°F20.9°C 62.2°F16.8°C 77% 9.0 mph WSW14.5 kmh WSW 15.0 mph24.1 kmh 29.79 in1008.8 mb 0.03 in0.8 mm 0.03 in0.8 mm 0.03 in0.8 mm
03:15 PM 70.1°F21.2°C 62.9°F17.2°C 78% 2.0 mph W3.2 kmh W 6.0 mph9.7 kmh 29.76 in1007.8 mb 0.03 in0.8 mm 0.00 in0.0 mm 0.03 in0.8 mm
03:30 PM 71.7°F22.1°C 62.6°F17.0°C 73% 5.0 mph WNW8.0 kmh WNW 8.0 mph12.9 kmh 29.76 in1007.8 mb 0.03 in0.8 mm 0.00 in0.0 mm 0.03 in0.8 mm
03:45 PM 75.2°F24.0°C 62.6°F17.0°C 65% 3.0 mph NW4.8 kmh NW 11.0 mph17.7 kmh 29.75 in1007.5 mb 0.03 in0.8 mm 0.00 in0.0 mm 0.03 in0.8 mm
04:00 PM 77.5°F25.3°C 64.8°F18.2°C 65% 3.0 mph WNW4.8 kmh WNW 7.0 mph11.3 kmh 29.75 in1007.5 mb 0.03 in0.8 mm 0.00 in0.0 mm 0.03 in0.8 mm
04:15 PM 78.5°F25.8°C 63.5°F17.5°C 60% 6.0 mph WNW9.7 kmh WNW 7.0 mph11.3 kmh 29.74 in1007.1 mb 0.00 in0.0 mm 0.00 in0.0 mm 0.03 in0.8 mm
04:30 PM 77.8°F25.4°C 61.9°F16.6°C 58% 3.0 mph WNW4.8 kmh WNW 9.0 mph14.5 kmh 29.75 in1007.5 mb 0.00 in0.0 mm 0.00 in0.0 mm 0.03 in0.8 mm
04:45 PM 77.9°F25.5°C 62.4°F16.9°C 59% 5.0 mph WNW8.0 kmh WNW 8.0 mph12.9 kmh 29.74 in1007.1 mb 0.00 in0.0 mm 0.00 in0.0 mm 0.03 in0.8 mm
05:00 PM 79.9°F26.6°C 61.8°F16.6°C 54% 7.0 mph NW11.3 kmh NW 14.0 mph22.5 kmh 29.74 in1007.1 mb 0.00 in0.0 mm 0.00 in0.0 mm 0.03 in0.8 mm
05:15 PM 81.7°F27.6°C 60.7°F15.9°C 49% 5.0 mph NW8.0 kmh NW 10.0 mph16.1 kmh 29.74 in1007.1 mb 0.00 in0.0 mm 0.00 in0.0 mm 0.03 in0.8 mm
05:30 PM 81.3°F27.4°C 58.6°F14.8°C 46% 4.0 mph WNW6.4 kmh WNW 13.0 mph20.9 kmh 29.74 in1007.1 mb 0.00 in0.0 mm 0.00 in0.0 mm 0.03 in0.8 mm
05:45 PM 81.4°F27.4°C 57.4°F14.1°C 44% 6.0 mph NW9.7 kmh NW 16.0 mph25.7 kmh 29.74 in1007.1 mb 0.00 in0.0 mm 0.00 in0.0 mm 0.03 in0.8 mm
06:00 PM 81.9°F27.7°C 55.9°F13.3°C 41% 10.0 mph NW16.1 kmh NW 11.0 mph17.7 kmh 29.74 in1007.1 mb 0.00 in0.0 mm 0.00 in0.0 mm 0.03 in0.8 mm
06:15 PM 81.5°F27.5°C 56.2°F13.4°C 42% 6.0 mph NW9.7 kmh NW 13.0 mph20.9 kmh 29.75 in1007.5 mb 0.00 in0.0 mm 0.00 in0.0 mm 0.03 in0.8 mm
06:30 PM 81.2°F27.3°C 56.0°F13.3°C 42% 4.0 mph NNW6.4 kmh NNW 14.0 mph22.5 kmh 29.75 in1007.5 mb 0.00 in0.0 mm 0.00 in0.0 mm 0.03 in0.8 mm
06:45 PM 81.6°F27.6°C 54.3°F12.4°C 39% 4.0 mph WSW6.4 kmh WSW 12.0 mph19.3 kmh 29.75 in1007.5 mb 0.00 in0.0 mm 0.00 in0.0 mm 0.03 in0.8 mm
07:00 PM 80.7°F27.1°C 54.8°F12.7°C 41% 6.0 mph WNW9.7 kmh WNW 20.0 mph32.2 kmh 29.75 in1007.5 mb 0.00 in0.0 mm 0.00 in0.0 mm 0.03 in0.8 mm
07:15 PM 80.0°F26.7°C 56.8°F13.8°C 45% 4.0 mph NW6.4 kmh NW 7.0 mph11.3 kmh 29.76 in1007.8 mb 0.00 in0.0 mm 0.00 in0.0 mm 0.03 in0.8 mm
07:30 PM 77.6°F25.3°C 55.2°F12.9°C 46% 5.0 mph N8.0 kmh N 7.0 mph11.3 kmh 29.77 in1008.1 mb 0.00 in0.0 mm 0.00 in0.0 mm 0.03 in0.8 mm
07:45 PM 75.9°F24.4°C 54.8°F12.7°C 48% 1.0 mph E1.6 kmh E 7.0 mph11.3 kmh 29.78 in1008.5 mb 0.00 in0.0 mm 0.00 in0.0 mm 0.03 in0.8 mm
08:00 PM 75.0°F23.9°C 54.6°F12.6°C 49% 3.0 mph NW4.8 kmh NW 7.0 mph11.3 kmh 29.78 in1008.5 mb 0.00 in0.0 mm 0.00 in0.0 mm 0.03 in0.8 mm
08:15 PM 74.6°F23.7°C 55.3°F12.9°C 51% 5.0 mph W8.0 kmh W 5.0 mph8.0 kmh 29.79 in1008.8 mb 0.00 in0.0 mm 0.00 in0.0 mm 0.03 in0.8 mm
08:30 PM 73.9°F23.3°C 55.7°F13.2°C 53% 3.0 mph NW4.8 kmh NW 5.0 mph8.0 kmh 29.79 in1008.8 mb 0.00 in0.0 mm 0.00 in0.0 mm 0.03 in0.8 mm
08:45 PM 73.1°F22.8°C 58.4°F14.7°C 60% 2.0 mph NW3.2 kmh NW 12.0 mph19.3 kmh 29.80 in1009.1 mb 0.01 in0.3 mm 0.04 in1.0 mm 0.04 in1.0 mm
09:00 PM 70.7°F21.5°C 58.8°F14.9°C 66% 1.0 mph NNW1.6 kmh NNW 3.0 mph4.8 kmh 29.80 in1009.1 mb 0.01 in0.3 mm 0.00 in0.0 mm 0.04 in1.0 mm
09:15 PM 70.0°F21.1°C 59.0°F15.0°C 68% 1.0 mph WSW1.6 kmh WSW 5.0 mph8.0 kmh 29.80 in1009.1 mb 0.01 in0.3 mm 0.00 in0.0 mm 0.04 in1.0 mm
09:30 PM 69.1°F20.6°C 58.1°F14.5°C 68% 2.0 mph WNW3.2 kmh WNW 5.0 mph8.0 kmh 29.80 in1009.1 mb 0.01 in0.3 mm 0.00 in0.0 mm 0.04 in1.0 mm
09:45 PM 68.3°F20.2°C 58.9°F14.9°C 72% 1.0 mph WSW1.6 kmh WSW 4.0 mph6.4 kmh 29.81 in1009.5 mb 0.01 in0.3 mm 0.00 in0.0 mm 0.04 in1.0 mm
10:00 PM 67.4°F19.7°C 58.5°F14.7°C 73% 2.0 mph WNW3.2 kmh WNW 4.0 mph6.4 kmh 29.81 in1009.5 mb 0.01 in0.3 mm 0.00 in0.0 mm 0.04 in1.0 mm
10:15 PM 66.5°F19.2°C 58.7°F14.8°C 76% 2.0 mph WNW3.2 kmh WNW 4.0 mph6.4 kmh 29.82 in1009.8 mb 0.00 in0.0 mm 0.00 in0.0 mm 0.04 in1.0 mm
10:30 PM 65.7°F18.7°C 58.3°F14.6°C 77% 1.0 mph NW1.6 kmh NW 2.0 mph3.2 kmh 29.82 in1009.8 mb 0.00 in0.0 mm 0.00 in0.0 mm 0.04 in1.0 mm
10:45 PM 65.2°F18.4°C 58.5°F14.7°C 79% Calm Calm 2.0 mph3.2 kmh 29.82 in1009.8 mb 0.00 in0.0 mm 0.00 in0.0 mm 0.04 in1.0 mm
11:00 PM 64.7°F18.2°C 58.1°F14.5°C 79% 2.0 mph WNW3.2 kmh WNW 2.0 mph3.2 kmh 29.82 in1009.8 mb 0.00 in0.0 mm 0.00 in0.0 mm 0.04 in1.0 mm
11:15 PM 64.4°F18.0°C 57.8°F14.3°C 79% Calm Calm 2.0 mph3.2 kmh 29.83 in1010.2 mb 0.00 in0.0 mm 0.00 in0.0 mm 0.04 in1.0 mm
11:30 PM 64.0°F17.8°C 57.7°F14.3°C 80% 2.0 mph NW3.2 kmh NW 4.0 mph6.4 kmh 29.83 in1010.2 mb 0.00 in0.0 mm 0.00 in0.0 mm 0.04 in1.0 mm
11:45 PM 63.7°F17.6°C 57.4°F14.1°C 80% Calm Calm 1.0 mph1.6 kmh 29.83 in1010.2 mb 0.00 in0.0 mm 0.00 in0.0 mm 0.04 in1.0 mm